Time;durP1;ratioP1;P1;durP2;ratioP2;P2;SDS_P1;SDS_P2;PMS_P1;PMS_P2;Temp;Humidity;BMP_temperature;BMP_pressure;BME280_temperature;BME280_humidity;BME280_pressure;Samples;Min_cycle;Max_cycle;Signal;HPM_P1;HPM_P2
2021/01/11 00:01:44;;;;;;;16.27;10.05;;;;;;;-2.39;79.47;100814.98;1791924;80;20958;-71
2021/01/11 00:04:13;;;;;;;15.25;10.53;;;;;;;-2.41;79.56;100814.16;1792104;80;21469;-70
2021/01/11 00:06:42;;;;;;;14.10;10.13;;;;;;;-2.43;79.73;100809.87;1792074;80;22113;-71
2021/01/11 00:09:10;;;;;;;16.37;10.98;;;;;;;-2.45;79.77;100820.48;1791905;80;21487;-71
2021/01/11 00:11:40;;;;;;;15.28;10.35;;;;;;;-2.48;79.88;100821.73;1791958;80;20898;-71
2021/01/11 00:14:08;;;;;;;13.80;9.75;;;;;;;-2.52;79.97;100822.11;1792023;80;21437;-72
2021/01/11 00:16:37;;;;;;;12.82;9.18;;;;;;;-2.55;80.09;100823.36;1791925;80;21004;-70
2021/01/11 00:19:06;;;;;;;12.40;9.30;;;;;;;-2.59;80.20;100820.77;1791906;80;21115;-70
2021/01/11 00:21:34;;;;;;;12.00;8.95;;;;;;;-2.63;80.21;100823.70;1787380;80;21008;-71
2021/01/11 00:24:02;;;;;;;14.95;10.20;;;;;;;-2.68;80.32;100825.34;1774810;80;20926;-70
2021/01/11 00:26:30;;;;;;;13.88;9.73;;;;;;;-2.71;80.35;100833.81;1774863;80;20924;-71
2021/01/11 00:28:59;;;;;;;12.05;9.13;;;;;;;-2.75;80.37;100832.48;1774858;80;21361;-70
2021/01/11 00:31:27;;;;;;;11.12;9.38;;;;;;;-2.81;80.36;100832.03;1774737;80;21247;-71
2021/01/11 00:33:55;;;;;;;12.30;9.03;;;;;;;-2.85;80.38;100848.13;1774740;80;21005;-70
2021/01/11 00:36:24;;;;;;;13.45;9.58;;;;;;;-2.90;80.46;100845.08;1774920;79;21344;-71
2021/01/11 00:38:52;;;;;;;14.03;9.73;;;;;;;-2.96;80.48;100857.33;1774732;80;20930;-71
2021/01/11 00:41:22;;;;;;;13.85;9.85;;;;;;;-3.02;80.64;100860.66;1774806;80;20958;-68
2021/01/11 00:43:50;;;;;;;13.50;9.73;;;;;;;-3.05;80.78;100854.66;1774802;80;22121;-69
2021/01/11 00:46:23;;;;;;;13.00;9.15;;;;;;;-3.07;80.90;100864.84;1774768;80;21461;-69
2021/01/11 00:48:52;;;;;;;12.95;9.55;;;;;;;-3.09;80.99;100861.83;1774795;80;20974;-69
2021/01/11 00:51:20;;;;;;;16.90;11.12;;;;;;;-3.12;81.08;100860.52;1774749;80;20929;-69
2021/01/11 00:53:48;;;;;;;21.73;12.20;;;;;;;-3.14;81.19;100857.09;1774799;80;20997;-69
2021/01/11 00:56:19;;;;;;;22.70;13.50;;;;;;;-3.16;81.23;100854.95;1774827;80;21209;-69
2021/01/11 00:58:49;;;;;;;31.90;16.40;;;;;;;-3.19;81.29;100855.76;1774700;80;21014;-69
2021/01/11 01:01:20;;;;;;;35.52;17.70;;;;;;;-3.22;81.32;100863.81;1774894;80;21349;-71
2021/01/11 01:03:51;;;;;;;30.48;16.30;;;;;;;-3.27;81.36;100857.37;1774776;80;20946;-71
2021/01/11 01:06:21;;;;;;;23.55;14.18;;;;;;;-3.29;81.47;100855.64;1775001;80;20926;-70
2021/01/11 01:08:50;;;;;;;24.57;14.15;;;;;;;-3.33;81.55;100858.98;1774776;80;21718;-71
2021/01/11 01:11:19;;;;;;;20.23;11.95;;;;;;;-3.37;81.50;100851.30;1774805;80;21005;-71
2021/01/11 01:13:49;;;;;;;15.65;11.18;;;;;;;-3.43;81.50;100856.31;1774752;80;21025;-71
2021/01/11 01:16:28;;;;;;;18.35;11.70;;;;;;;-3.50;81.62;100854.92;1774810;80;21013;-70
2021/01/11 01:18:56;;;;;;;18.27;11.45;;;;;;;-3.56;81.68;100867.15;1774759;80;21013;-70
2021/01/11 01:21:25;;;;;;;18.20;10.63;;;;;;;-3.62;81.73;100860.73;1775341;79;21199;-71
2021/01/11 01:23:53;;;;;;;14.95;11.10;;;;;;;-3.67;81.87;100861.07;1789330;80;20949;-70
2021/01/11 01:26:21;;;;;;;18.15;10.90;;;;;;;-3.72;81.93;100853.36;1789534;80;21470;-70
2021/01/11 01:28:51;;;;;;;17.10;10.55;;;;;;;-3.74;82.01;100849.09;1788402;80;20954;-70
2021/01/11 01:31:20;;;;;;;17.27;11.12;;;;;;;-3.78;82.11;100844.78;1789400;80;20925;-70
2021/01/11 01:33:48;;;;;;;15.23;11.12;;;;;;;-3.82;82.12;100849.38;1789408;80;21314;-70
2021/01/11 01:36:20;;;;;;;18.90;11.55;;;;;;;-3.87;82.09;100851.00;1789406;79;21586;-70
2021/01/11 01:38:48;;;;;;;17.40;11.75;;;;;;;-3.93;82.29;100847.08;1789423;80;21012;-71
2021/01/11 01:41:16;;;;;;;16.90;12.25;;;;;;;-4.00;82.59;100847.43;1789308;80;20977;-70
2021/01/11 01:43:45;;;;;;;15.75;11.12;;;;;;;-4.04;82.79;100847.80;1789489;80;21610;-70
2021/01/11 01:46:15;;;;;;;17.50;11.83;;;;;;;-4.06;83.01;100843.09;1789337;80;21106;-70
2021/01/11 01:48:44;;;;;;;18.60;12.15;;;;;;;-4.07;83.24;100833.75;1789345;80;20969;-70
2021/01/11 01:51:12;;;;;;;18.60;12.07;;;;;;;-4.08;83.45;100843.91;1761311;80;20933;-70
2021/01/11 01:53:44;;;;;;;19.50;11.15;;;;;;;-4.08;83.72;100847.72;1789344;80;20934;-71
2021/01/11 01:56:11;;;;;;;19.00;11.85;;;;;;;-4.09;83.86;100848.13;1789453;79;20925;-71
2021/01/11 01:58:39;;;;;;;18.70;11.45;;;;;;;-4.08;83.92;100854.08;1789317;79;21264;-70
2021/01/11 02:01:07;;;;;;;18.62;12.23;;;;;;;-4.10;83.94;100856.59;1789408;80;21562;-71
2021/01/11 02:03:37;;;;;;;17.37;12.00;;;;;;;-4.09;83.98;100865.08;1789360;80;21012;-71
2021/01/11 02:06:06;;;;;;;22.70;12.85;;;;;;;-4.12;83.96;100869.70;1789414;80;21454;-70
2021/01/11 02:08:51;;;;;;;18.62;12.25;;;;;;;-4.13;83.92;100873.08;1761206;80;20921;-70
2021/01/11 02:11:28;;;;;;;21.77;12.82;;;;;;;-4.14;83.97;100870.50;1789400;80;21268;-70
2021/01/11 02:14:30;;;;;;;21.50;13.22;;;;;;;-4.17;83.92;100873.84;1789325;80;20965;-71
2021/01/11 02:17:10;;;;;;;24.55;12.73;;;;;;;-4.20;83.87;100880.16;1788887;80;20965;-71
2021/01/11 02:20:13;;;;;;;23.57;12.23;;;;;;;-4.23;83.95;100886.87;1789278;80;20969;-71
2021/01/11 02:23:18;;;;;;;17.65;11.85;;;;;;;-4.26;84.07;100892.75;1783319;80;21525;-70
2021/01/11 02:26:04;;;;;;;18.52;11.90;;;;;;;-4.29;84.07;100891.43;1774732;80;22133;-70
2021/01/11 02:28:58;;;;;;;18.87;12.28;;;;;;;-4.31;84.18;100884.60;1774700;80;20899;-70
2021/01/11 02:31:26;;;;;;;22.25;12.33;;;;;;;-4.32;84.25;100879.08;1774734;80;21570;-70
2021/01/11 02:33:55;;;;;;;19.50;12.68;;;;;;;-4.34;84.33;100882.00;1774669;80;20989;-71
2021/01/11 02:36:23;;;;;;;21.90;11.93;;;;;;;-4.36;84.38;100880.29;1774739;80;20925;-71
2021/01/11 02:38:52;;;;;;;19.27;12.53;;;;;;;-4.35;84.51;100884.96;1774727;80;21650;-71
2021/01/11 02:41:20;;;;;;;22.22;12.53;;;;;;;-4.36;84.58;100876.48;1774638;80;20974;-70
2021/01/11 02:43:48;;;;;;;18.92;11.70;;;;;;;-4.35;84.65;100873.52;1774719;80;20993;-71
2021/01/11 02:46:17;;;;;;;20.50;12.18;;;;;;;-4.33;84.74;100879.49;1774652;80;21009;-71
2021/01/11 02:48:54;;;;;;;20.57;12.98;;;;;;;-4.29;84.86;100871.50;1774856;80;21567;-71
2021/01/11 02:51:33;;;;;;;16.95;11.57;;;;;;;-4.26;84.86;100869.88;1774718;80;21306;-70
2021/01/11 02:54:22;;;;;;;22.10;12.73;;;;;;;-4.22;84.83;100865.28;1774780;79;21488;-70
2021/01/11 02:57:25;;;;;;;20.75;12.33;;;;;;;-4.19;84.88;100870.42;1774699;80;20949;-71
2021/01/11 03:00:05;;;;;;;22.60;12.33;;;;;;;-4.18;85.03;100869.59;1774793;80;20997;-70
2021/01/11 03:02:35;;;;;;;21.37;12.25;;;;;;;-4.12;85.23;100884.10;1774878;80;21029;-70
2021/01/11 03:05:05;;;;;;;26.70;14.55;;;;;;;-4.06;85.39;100873.62;1774970;80;22129;-71
2021/01/11 03:07:33;;;;;;;24.60;14.58;;;;;;;-3.99;85.59;100875.82;1774812;80;21357;-71
2021/01/11 03:10:02;;;;;;;34.33;18.02;;;;;;;-3.90;85.73;100871.30;1774898;80;20922;-71
2021/01/11 03:12:31;;;;;;;43.23;22.05;;;;;;;-3.81;85.64;100880.36;1774919;80;21468;-71
2021/01/11 03:14:59;;;;;;;115.12;42.10;;;;;;;-3.75;85.49;100878.77;1774839;80;20938;-71
2021/01/11 03:17:28;;;;;;;110.03;36.50;;;;;;;-3.68;85.30;100872.08;1774834;80;21196;-71
2021/01/11 03:19:56;;;;;;;110.52;39.13;;;;;;;-3.63;85.13;100867.06;1774766;80;21124;-70
2021/01/11 03:22:24;;;;;;;80.83;30.48;;;;;;;-3.58;84.99;100866.69;1776777;80;21033;-71
2021/01/11 03:24:53;;;;;;;61.18;30.48;;;;;;;-3.50;84.90;100865.11;1789472;80;20925;-70
2021/01/11 03:27:21;;;;;;;48.98;27.93;;;;;;;-3.46;84.60;100867.72;1789537;80;21060;-70
2021/01/11 03:29:49;;;;;;;35.98;24.65;;;;;;;-3.41;84.50;100870.34;1789506;80;21324;-70
2021/01/11 03:32:17;;;;;;;23.42;16.67;;;;;;;-3.38;84.44;100866.56;1789440;80;21028;-70
2021/01/11 03:34:46;;;;;;;19.30;13.43;;;;;;;-3.35;84.33;100860.23;1789442;80;20993;-70
2021/01/11 03:37:14;;;;;;;20.77;11.90;;;;;;;-3.33;84.28;100862.39;1789467;80;21368;-70
2021/01/11 03:39:42;;;;;;;18.52;12.28;;;;;;;-3.30;84.28;100858.61;1789467;80;20894;-71
2021/01/11 03:42:11;;;;;;;16.07;11.15;;;;;;;-3.25;84.26;100858.67;1789465;80;21193;-71
2021/01/11 03:44:39;;;;;;;18.27;11.08;;;;;;;-3.21;84.24;100856.61;1789360;80;21024;-71
2021/01/11 03:47:08;;;;;;;22.48;10.93;;;;;;;-3.17;84.13;100849.41;1789467;80;21087;-71
2021/01/11 03:49:36;;;;;;;20.70;10.70;;;;;;;-3.14;84.01;100842.67;1789487;80;20989;-71
2021/01/11 03:52:05;;;;;;;19.15;11.18;;;;;;;-3.10;84.00;100841.02;1789432;80;21315;-70
2021/01/11 03:54:33;;;;;;;18.23;11.68;;;;;;;-3.05;83.90;100838.11;1789484;80;21205;-70
2021/01/11 03:57:01;;;;;;;20.70;11.12;;;;;;;-3.03;83.79;100833.89;1789410;79;20964;-70
2021/01/11 03:59:30;;;;;;;18.67;11.28;;;;;;;-3.03;83.70;100840.26;1789405;79;21025;-71
2021/01/11 04:01:59;;;;;;;22.42;12.40;;;;;;;-3.03;83.75;100846.63;1789443;80;21009;-70
2021/01/11 04:04:27;;;;;;;18.87;11.80;;;;;;;-3.02;83.75;100850.88;1789433;80;21012;-70
2021/01/11 04:06:57;;;;;;;20.80;12.80;;;;;;;-2.99;83.82;100853.47;1789548;80;22089;-71
2021/01/11 04:09:28;;;;;;;23.10;12.98;;;;;;;-2.96;83.85;100842.46;1789397;80;20993;-71
2021/01/11 04:11:56;;;;;;;27.48;14.50;;;;;;;-2.92;83.81;100848.89;1789408;79;20968;-71
2021/01/11 04:14:25;;;;;;;31.00;16.23;;;;;;;-2.90;83.83;100838.30;1789388;79;21028;-73
2021/01/11 04:16:53;;;;;;;33.67;17.40;;;;;;;-2.89;83.70;100837.45;1789587;80;21359;-71
2021/01/11 04:19:21;;;;;;;28.50;16.10;;;;;;;-2.88;83.71;100845.54;1789466;80;21398;-71
2021/01/11 04:21:50;;;;;;;30.77;16.23;;;;;;;-2.86;83.82;100835.36;1789360;80;21033;-71
2021/01/11 04:24:19;;;;;;;28.35;17.20;;;;;;;-2.85;83.87;100835.38;1789376;79;20937;-71
2021/01/11 04:26:47;;;;;;;32.00;17.80;;;;;;;-2.82;83.98;100831.59;1789371;80;20993;-72
2021/01/11 04:29:16;;;;;;;29.42;18.42;;;;;;;-2.78;84.02;100830.76;1789557;80;21531;-72
2021/01/11 04:31:48;;;;;;;29.82;17.65;;;;;;;-2.75;84.06;100826.97;1789435;80;21200;-72
2021/01/11 04:34:16;;;;;;;27.22;16.82;;;;;;;-2.72;84.28;100818.08;1789393;80;20973;-72
2021/01/11 04:36:44;;;;;;;37.13;20.82;;;;;;;-2.66;84.63;100819.84;1789450;80;20921;-72
2021/01/11 04:39:13;;;;;;;50.58;27.75;;;;;;;-2.58;84.94;100819.50;1789405;80;20933;-72
2021/01/11 04:41:41;;;;;;;49.05;26.33;;;;;;;-2.51;85.16;100812.35;1789433;80;21352;-72
2021/01/11 04:44:10;;;;;;;34.78;19.37;;;;;;;-2.43;85.16;100802.23;1789417;80;21263;-71
2021/01/11 04:46:39;;;;;;;35.05;19.48;;;;;;;-2.38;84.76;100804.37;1760621;80;21531;-72
2021/01/11 04:49:07;;;;;;;30.85;18.05;;;;;;;-2.34;84.44;100809.93;1789457;79;21380;-72
2021/01/11 04:51:40;;;;;;;27.37;15.70;;;;;;;-2.30;84.31;100809.53;1789403;80;20894;-72
2021/01/11 04:54:09;;;;;;;27.15;16.32;;;;;;;-2.28;84.42;100802.75;1789457;80;21570;-72
2021/01/11 04:56:43;;;;;;;32.60;16.27;;;;;;;-2.26;84.40;100806.17;1789417;80;21360;-72
2021/01/11 04:59:11;;;;;;;20.90;13.93;;;;;;;-2.24;84.28;100809.17;1789445;80;20938;-71
2021/01/11 05:01:40;;;;;;;23.90;14.55;;;;;;;-2.21;84.18;100820.68;1789309;80;20950;-71
2021/01/11 05:04:08;;;;;;;25.77;16.15;;;;;;;-2.18;84.29;100821.98;1789474;80;21341;-71
2021/01/11 05:06:37;;;;;;;39.30;20.70;;;;;;;-2.14;84.30;100825.41;1789407;80;21565;-71
2021/01/11 05:09:07;;;;;;;37.93;21.93;;;;;;;-2.10;84.36;100829.28;1789413;80;21367;-71
2021/01/11 05:11:35;;;;;;;36.25;22.35;;;;;;;-2.07;84.39;100829.31;1789357;80;21040;-72
2021/01/11 05:14:04;;;;;;;34.33;21.77;;;;;;;-2.03;84.50;100828.49;1789411;80;21364;-71
2021/01/11 05:16:32;;;;;;;32.63;18.77;;;;;;;-1.98;84.21;100822.11;1789455;80;20993;-71
2021/01/11 05:19:23;;;;;;;27.45;16.37;;;;;;;-1.95;84.04;100824.70;1789434;80;20930;-70
2021/01/11 05:21:52;;;;;;;20.50;12.75;;;;;;;-1.91;83.90;100820.05;1789365;80;21325;-70
2021/01/11 05:24:37;;;;;;;21.25;12.55;;;;;;;-1.89;83.67;100817.51;1779871;79;21501;-70
2021/01/11 05:27:08;;;;;;;21.80;13.35;;;;;;;-1.88;83.48;100819.22;1774762;80;21021;-71
2021/01/11 05:29:40;;;;;;;21.12;13.08;;;;;;;-1.88;83.37;100825.17;1774737;80;20993;-71
2021/01/11 05:32:09;;;;;;;22.55;13.55;;;;;;;-1.86;83.45;100831.14;1774810;80;21424;-70
2021/01/11 05:34:48;;;;;;;19.95;12.55;;;;;;;-1.84;83.28;100833.71;1774710;80;22077;-70
2021/01/11 05:37:36;;;;;;;20.52;12.47;;;;;;;-1.85;82.99;100825.62;1771582;79;20998;-71
2021/01/11 05:40:16;;;;;;;18.17;12.43;;;;;;;-1.88;82.83;100828.15;1774739;80;20972;-69
2021/01/11 05:42:55;;;;;;;18.40;11.38;;;;;;;-1.93;82.89;100829.81;1774489;80;21009;-70
2021/01/11 05:45:33;;;;;;;23.85;15.20;;;;;;;-1.94;82.98;100837.89;1779548;78;21017;-71
2021/01/11 05:50:49;;;;;;;19.57;11.30;;;;;;;-1.93;83.01;100849.81;1789586;79;21034;-74
2021/01/11 05:53:23;;;;;;;16.00;9.88;;;;;;;-1.94;83.01;100849.38;1783875;80;20903;-72
2021/01/11 05:55:53;;;;;;;16.15;10.63;;;;;;;-1.93;83.39;100849.81;1770912;80;20973;-72
2021/01/11 05:58:23;;;;;;;19.07;10.78;;;;;;;-1.92;83.70;100863.00;1761412;81;20994;-69
2021/01/11 06:00:51;;;;;;;15.83;10.72;;;;;;;-1.89;83.63;100869.41;1761110;78;21197;-68
2021/01/11 06:03:19;;;;;;;15.72;9.98;;;;;;;-1.86;83.65;100869.86;1764756;80;21026;-76
2021/01/11 06:05:47;;;;;;;18.00;10.15;;;;;;;-1.84;83.59;100868.17;1778445;78;21093;-70
2021/01/11 06:08:15;;;;;;;18.73;11.12;;;;;;;-1.82;83.54;100872.45;1803907;78;21059;-68
2021/01/11 06:10:44;;;;;;;19.52;10.72;;;;;;;-1.78;83.47;100875.88;1815265;78;21081;-69
2021/01/11 06:13:12;;;;;;;21.10;10.63;;;;;;;-1.77;83.33;100870.78;1826633;78;21199;-71
2021/01/11 06:15:42;;;;;;;20.17;13.03;;;;;;;-1.78;83.28;100860.56;1824614;78;21049;-69
2021/01/11 06:18:13;;;;;;;24.65;14.38;;;;;;;-1.75;83.35;100862.72;1807317;78;20955;-69
2021/01/11 06:20:46;;;;;;;23.05;14.30;;;;;;;-1.72;83.40;100872.09;1714865;82;21086;-69
2021/01/11 06:23:26;;;;;;;25.90;16.77;;;;;;;-1.69;83.37;100868.30;1765192;79;21071;-70
2021/01/11 06:25:58;;;;;;;17.82;14.50;;;;;;;-1.66;83.22;100859.80;1734310;82;22247;-71
2021/01/11 06:28:35;;;;;;;16.82;12.45;;;;;;;-1.63;83.13;100866.20;1733975;81;20937;-70
2021/01/11 06:31:14;;;;;;;17.42;12.50;;;;;;;-1.61;83.06;100861.97;1734357;82;21508;-72
2021/01/11 06:33:43;;;;;;;15.60;12.13;;;;;;;-1.60;83.00;100859.39;1740234;79;21008;-70
2021/01/11 06:36:21;;;;;;;17.00;11.95;;;;;;;-1.57;82.86;100858.55;1733829;82;21056;-69
2021/01/11 06:38:51;;;;;;;18.85;12.78;;;;;;;-1.54;82.68;100863.69;1762326;81;21281;-68
2021/01/11 06:41:23;;;;;;;16.55;11.90;;;;;;;-1.52;82.57;100860.72;1742144;81;21199;-69
2021/01/11 06:43:52;;;;;;;16.48;12.03;;;;;;;-1.48;82.47;100859.89;1734113;82;21039;-71
2021/01/11 06:46:42;;;;;;;18.75;12.68;;;;;;;-1.47;82.39;100862.45;1734602;79;21154;-69
2021/01/11 06:49:05;;;;;;;20.55;14.40;;;;;;;-1.46;82.31;100862.89;1770142;79;21058;-69
2021/01/11 06:51:42;;;;;;;21.82;14.03;;;;;;;-1.44;82.27;100865.03;1799861;79;21438;-71
2021/01/11 06:54:19;;;;;;;15.98;10.85;;;;;;;-1.41;82.25;100865.48;1794859;79;20993;-71
2021/01/11 06:56:47;;;;;;;13.58;10.38;;;;;;;-1.40;82.22;100866.77;1796733;79;21055;-70
2021/01/11 06:59:19;;;;;;;18.12;11.78;;;;;;;-1.38;82.15;100856.55;1785922;78;20874;-69
2021/01/11 07:01:48;;;;;;;15.63;12.03;;;;;;;-1.35;82.12;100865.09;1777272;79;21136;-70
2021/01/11 07:04:36;;;;;;;15.25;11.38;;;;;;;-1.31;82.16;100863.41;1777187;79;21205;-74
2021/01/11 07:07:05;;;;;;;15.30;11.08;;;;;;;-1.28;82.05;100867.27;1698735;79;21057;-72
2021/01/11 07:09:34;;;;;;;17.70;11.78;;;;;;;-1.25;81.76;100871.11;1772812;79;21005;-73
2021/01/11 07:12:04;;;;;;;14.83;10.93;;;;;;;-1.23;81.60;100869.84;1725439;79;21583;-71
2021/01/11 07:14:57;;;;;;;20.37;12.55;;;;;;;-1.22;81.77;100876.24;1802570;79;21071;-71
2021/01/11 07:17:37;;;;;;;16.23;10.45;;;;;;;-1.19;81.79;100875.38;1779144;80;21594;-71
2021/01/11 07:20:11;;;;;;;16.48;10.30;;;;;;;-1.18;81.57;100874.52;1782434;79;21118;-69
2021/01/11 07:22:42;;;;;;;13.40;9.35;;;;;;;-1.15;81.47;100875.82;1782659;79;21043;-69
2021/01/11 07:25:24;;;;;;;15.50;10.40;;;;;;;-1.13;81.38;100871.15;1831502;77;20985;-70
2021/01/11 07:27:57;;;;;;;14.47;10.30;;;;;;;-1.10;81.17;100882.67;1848001;77;21041;-70
2021/01/11 07:30:28;;;;;;;14.65;9.90;;;;;;;-1.08;81.04;100881.40;1780631;80;21371;-68
2021/01/11 07:32:57;;;;;;;11.55;9.08;;;;;;;-1.06;81.05;100887.38;1801397;79;21069;-70
2021/01/11 07:35:26;;;;;;;13.48;10.10;;;;;;;-1.05;81.02;100885.25;1800778;79;21040;-70
2021/01/11 07:37:54;;;;;;;13.22;9.83;;;;;;;-1.02;81.01;100897.63;1801288;79;21048;-72
2021/01/11 07:40:24;;;;;;;11.95;8.95;;;;;;;-0.99;80.99;100894.23;1778591;80;21639;-71
2021/01/11 07:42:54;;;;;;;10.68;8.83;;;;;;;-0.97;81.01;100893.81;1782908;79;21216;-69
2021/01/11 07:45:22;;;;;;;12.20;9.08;;;;;;;-0.93;80.99;100897.23;1833045;76;21065;-69
2021/01/11 07:47:52;;;;;;;12.65;9.20;;;;;;;-0.93;81.15;100903.62;1720404;81;21039;-72
2021/01/11 07:50:28;;;;;;;18.27;11.18;;;;;;;-0.89;81.27;100905.36;1820357;78;21111;-71
2021/01/11 07:52:58;;;;;;;15.83;12.07;;;;;;;-0.85;81.22;100912.19;1818303;79;20875;-76
2021/01/11 07:55:29;;;;;;;15.65;10.30;;;;;;;-0.81;81.16;100910.94;1800103;79;22166;-71
2021/01/11 07:58:02;;;;;;;20.43;13.30;;;;;;;-0.78;81.18;100908.78;1818155;79;20990;-70
2021/01/11 08:00:35;;;;;;;14.55;9.55;;;;;;;-0.74;80.98;100913.06;1820620;76;25131;-69
2021/01/11 08:03:03;;;;;;;15.08;10.18;;;;;;;-0.72;80.88;100910.95;1835146;77;21049;-70
2021/01/11 08:05:32;;;;;;;12.43;8.70;;;;;;;-0.71;80.84;100917.77;1844923;77;21601;-70
2021/01/11 08:08:04;;;;;;;13.05;9.68;;;;;;;-0.68;80.70;100912.67;1761544;80;20987;-66
2021/01/11 08:10:33;;;;;;;10.80;9.45;;;;;;;-0.65;80.62;100917.37;1752730;79;21063;-68
2021/01/11 08:13:08;;;;;;;10.00;8.60;;;;;;;-0.62;80.50;100913.12;1749653;79;21116;-67
2021/01/11 08:15:37;;;;;;;16.23;10.10;;;;;;;-0.59;80.45;100914.83;1749859;80;21135;-68
2021/01/11 08:18:06;;;;;;;16.27;11.55;;;;;;;-0.56;80.44;100907.17;1763836;80;21692;-69
2021/01/11 08:20:35;;;;;;;13.90;9.45;;;;;;;-0.55;80.40;100897.38;1748664;80;22652;-69
2021/01/11 08:23:10;;;;;;;11.33;9.43;;;;;;;-0.51;80.21;100900.37;1775877;80;21098;-69
2021/01/11 08:25:41;;;;;;;12.37;9.40;;;;;;;-0.51;80.21;100885.02;1752449;80;21805;-73
2021/01/11 08:28:11;;;;;;;14.70;9.75;;;;;;;-0.48;80.00;100896.12;1753325;80;21105;-69
2021/01/11 08:30:42;;;;;;;12.55;10.23;;;;;;;-0.45;80.09;100890.16;1787562;80;22253;-68
2021/01/11 08:33:12;;;;;;;14.47;8.95;;;;;;;-0.40;80.10;100889.74;1779886;80;21172;-69
2021/01/11 08:35:41;;;;;;;10.65;7.95;;;;;;;-0.37;80.05;100895.69;1765208;80;21941;-70
2021/01/11 08:38:12;;;;;;;11.03;8.13;;;;;;;-0.31;79.91;100895.28;1829326;78;21057;-69
2021/01/11 08:40:41;;;;;;;11.78;9.33;;;;;;;-0.29;79.66;100891.88;1837150;78;21116;-69
2021/01/11 08:43:25;;;;;;;12.45;9.33;;;;;;;-0.27;79.28;100886.33;1808806;78;21006;-69
2021/01/11 08:45:51;;;;;;;;;;;;;;;-0.25;79.18;100897.85;1813794;78;21207;-72
2021/01/11 08:48:26;;;;;;;12.37;8.93;;;;;;;-0.23;79.15;100891.03;1837752;76;20239;-66
2021/01/11 08:50:57;;;;;;;12.20;8.65;;;;;;;-0.21;79.18;100892.74;1839495;78;21018;-68
2021/01/11 08:53:35;;;;;;;11.60;8.40;;;;;;;-0.16;79.34;100896.17;1839869;78;20969;-70
2021/01/11 08:56:09;;;;;;;10.03;7.85;;;;;;;-0.11;79.11;100889.35;1840682;78;21072;-70
2021/01/11 08:58:41;;;;;;;9.98;8.13;;;;;;;-0.08;78.98;100888.50;1840009;78;21365;-72
2021/01/11 09:01:14;;;;;;;10.00;8.03;;;;;;;-0.05;78.84;100884.24;1836165;78;21657;-72
2021/01/11 09:03:53;;;;;;;10.70;7.80;;;;;;;-0.02;78.32;100879.55;1830799;77;21042;-72
2021/01/11 09:06:42;;;;;;;10.55;7.90;;;;;;;0.02;78.15;100885.50;1837853;78;21627;-73
2021/01/11 09:09:14;;;;;;;9.90;7.78;;;;;;;0.04;78.06;100885.07;1838714;78;21125;-70
2021/01/11 09:11:48;;;;;;;10.03;7.78;;;;;;;0.07;77.82;100878.67;1775501;80;22312;-70
2021/01/11 09:14:18;;;;;;;9.95;8.03;;;;;;;0.09;77.69;100878.25;1793494;80;20998;-69
2021/01/11 09:16:46;;;;;;;11.05;8.08;;;;;;;0.12;77.45;100875.69;1793291;80;20961;-69
2021/01/11 09:19:17;;;;;;;11.48;8.48;;;;;;;0.10;77.04;100869.71;1775822;80;21634;-69
2021/01/11 09:22:17;;;;;;;10.28;8.00;;;;;;;0.08;77.12;100869.71;1793165;80;20983;-70
2021/01/11 09:24:46;;;;;;;9.90;7.60;;;;;;;0.08;77.27;100870.99;1793446;80;21047;-72
2021/01/11 09:27:14;;;;;;;10.58;7.67;;;;;;;0.03;77.40;100871.41;1791859;80;21060;-72
2021/01/11 09:29:43;;;;;;;9.48;8.18;;;;;;;0.05;77.48;100880.38;1780990;80;20986;-69
2021/01/11 09:32:14;;;;;;;13.88;8.15;;;;;;;0.05;77.42;100879.09;1787625;80;20979;-70
2021/01/11 09:34:42;;;;;;;11.48;8.05;;;;;;;0.03;77.47;100879.09;1767511;80;21531;-70
2021/01/11 09:37:12;;;;;;;11.68;7.25;;;;;;;0.03;77.44;100879.09;1787194;80;21104;-69
2021/01/11 09:39:42;;;;;;;7.72;6.87;;;;;;;0.03;77.69;100879.09;1786307;80;21021;-68
2021/01/11 09:42:10;;;;;;;10.45;7.60;;;;;;;0.06;77.51;100879.09;1786195;80;20982;-73
2021/01/11 09:44:52;;;;;;;12.43;7.40;;;;;;;0.11;77.36;100875.27;1766737;80;21041;-72
2021/01/11 09:47:37;;;;;;;12.03;8.50;;;;;;;0.13;77.63;100883.80;1766429;80;21052;-69
2021/01/11 09:50:10;;;;;;;14.80;8.08;;;;;;;0.16;77.73;100873.12;1837651;77;21621;-72
2021/01/11 09:52:38;;;;;;;10.18;7.70;;;;;;;0.20;77.92;100877.40;1836808;78;21046;-72
2021/01/11 09:55:08;;;;;;;9.70;6.97;;;;;;;0.23;77.75;100879.11;1837197;78;20992;-69
2021/01/11 09:57:38;;;;;;;10.43;7.85;;;;;;;0.24;77.87;100880.81;1837069;78;21482;-68
2021/01/11 10:00:14;;;;;;;10.90;8.10;;;;;;;0.25;77.71;100879.96;1837069;78;21003;-67
2021/01/11 10:02:48;;;;;;;9.93;8.48;;;;;;;0.25;77.76;100887.64;1833210;77;21355;-71
2021/01/11 10:05:17;;;;;;;9.98;7.42;;;;;;;0.24;77.79;100878.25;1810721;78;21564;-71
2021/01/11 10:07:47;;;;;;;11.85;7.90;;;;;;;0.24;77.80;100872.70;1803377;78;21037;-69
2021/01/11 10:10:17;;;;;;;9.68;8.35;;;;;;;0.24;77.95;100870.14;1744837;80;21712;-68
2021/01/11 10:12:45;;;;;;;9.68;8.38;;;;;;;0.28;77.92;100876.97;1749004;81;21109;-70
2021/01/11 10:15:14;;;;;;;11.03;8.20;;;;;;;0.29;78.05;100877.40;1809047;79;22022;-69
2021/01/11 10:17:42;;;;;;;11.40;8.58;;;;;;;0.32;78.32;100878.68;1739836;81;21001;-69
2021/01/11 10:20:13;;;;;;;8.90;7.30;;;;;;;0.37;78.16;100875.27;1754276;81;32968;-68
2021/01/11 10:22:44;;;;;;;10.68;7.78;;;;;;;0.39;78.24;100869.28;1770053;80;21065;-69
2021/01/11 10:25:15;;;;;;;9.75;7.42;;;;;;;0.42;78.13;100862.84;1775077;80;20985;-71
2021/01/11 10:27:44;;;;;;;11.45;8.60;;;;;;;0.46;78.19;100865.83;1773449;80;21280;-69
2021/01/11 10:30:14;;;;;;;13.05;8.85;;;;;;;0.51;78.12;100859.42;1773635;80;21041;-71
2021/01/11 10:32:43;;;;;;;13.95;9.60;;;;;;;0.55;78.25;100861.97;1752934;81;21643;-69
2021/01/11 10:35:12;;;;;;;11.38;8.35;;;;;;;0.59;78.28;100854.70;1773340;80;21014;-72
2021/01/11 10:37:42;;;;;;;11.73;9.15;;;;;;;0.64;78.32;100860.67;1772954;80;21034;-72
2021/01/11 10:40:12;;;;;;;14.35;9.43;;;;;;;0.69;78.02;100853.41;1773279;79;21198;-72
2021/01/11 10:42:41;;;;;;;13.10;9.00;;;;;;;0.72;77.90;100852.97;1748563;81;21050;-69
2021/01/11 10:45:10;;;;;;;13.65;9.95;;;;;;;0.72;77.83;100844.00;1749233;82;21018;-68
2021/01/11 10:47:39;;;;;;;11.50;9.10;;;;;;;0.75;77.75;100845.28;1749470;82;21033;-69
2021/01/11 10:50:10;;;;;;;12.20;8.60;;;;;;;0.77;77.77;100841.42;1750068;81;21211;-71
2021/01/11 10:52:40;;;;;;;12.13;9.00;;;;;;;0.82;77.60;100841.80;1756867;80;21389;-69
2021/01/11 10:55:10;;;;;;;12.65;9.30;;;;;;;0.86;77.43;100842.22;1744114;81;21625;-71
2021/01/11 10:57:38;;;;;;;12.07;9.85;;;;;;;0.88;77.39;100837.09;1812744;79;20995;-73
2021/01/11 11:00:11;;;;;;;14.68;9.45;;;;;;;0.88;77.30;100840.51;1812103;79;21111;-67
2021/01/11 11:02:44;;;;;;;10.13;8.43;;;;;;;0.87;77.47;100842.64;1812936;78;21602;-70
2021/01/11 11:05:11;;;;;;;11.90;10.03;;;;;;;0.89;77.37;100843.49;1800429;79;21392;-70
2021/01/11 11:07:40;;;;;;;11.50;9.08;;;;;;;0.89;77.07;100848.62;1793898;78;21116;-70
2021/01/11 11:10:14;;;;;;;12.00;9.13;;;;;;;0.90;76.98;100837.51;1749129;80;20935;-70
2021/01/11 11:12:42;;;;;;;15.65;11.00;;;;;;;0.90;76.86;100838.79;1719064;81;21571;-69
2021/01/11 11:15:12;;;;;;;16.82;11.90;;;;;;;0.89;76.80;100834.95;1741794;82;21512;-69
2021/01/11 11:17:41;;;;;;;13.70;10.68;;;;;;;0.90;77.05;100831.53;1742148;82;21381;-70
2021/01/11 11:20:10;;;;;;;13.50;10.55;;;;;;;0.92;76.95;100833.23;1741909;82;21061;-70
2021/01/11 11:22:38;;;;;;;17.00;11.35;;;;;;;0.93;76.85;100839.20;1742225;82;21626;-68
2021/01/11 11:25:08;;;;;;;10.55;8.95;;;;;;;0.94;76.88;100833.22;1743490;81;20993;-69
2021/01/11 11:27:37;;;;;;;13.53;9.68;;;;;;;0.95;76.83;100834.92;1712817;83;21734;-69
2021/01/11 11:30:06;;;;;;;12.40;9.85;;;;;;;0.97;76.82;100830.65;1712770;83;22256;-68
2021/01/11 11:32:35;;;;;;;13.68;9.68;;;;;;;1.00;76.72;100833.20;1724641;81;21024;-68
2021/01/11 11:35:05;;;;;;;12.82;10.28;;;;;;;0.99;76.65;100825.09;1757135;81;21326;-69
2021/01/11 11:37:34;;;;;;;13.98;11.08;;;;;;;0.97;76.62;100819.96;1748889;81;20994;-69